Terminal Aerodrome Forecast
Issued by NWS

Home | Current Version | Previous Version | Text Only | Print | Product List | Glossary On
Versions: 1 2 3 4 5 6 7 8 9 10 11 12 13 14
000
FTUS45 KABQ 282324
TAFGUP
TAF
KGUP 282324Z 2900/2924 24024G38KT P6SM VCSH BKN090
     FM290200 24012G20KT P6SM VCSH OVC080
     FM290400 22006KT P6SM OVC060
      TEMPO 2911/2915 6SM -RA OVC025
     FM291500 23011KT P6SM OVC035
     FM291900 26015G25KT P6SM VCSH OVC050=

USA.gov is the U.S. government's official web portal to all federal, state and local government web resources and services.